createdAt,value
2018-04-18T00:00:26.011Z,1022.82
2018-04-18T00:01:26.069Z,1022.83
2018-04-18T00:03:20.038Z,1022.81
2018-04-18T00:04:19.603Z,1022.81
2018-04-18T00:06:13.153Z,1022.81
2018-04-18T00:07:13.174Z,1022.85
2018-04-18T00:08:13.211Z,1022.82
2018-04-18T00:09:13.250Z,1022.86
2018-04-18T00:10:13.280Z,1022.86
2018-04-18T00:11:13.316Z,1022.86
2018-04-18T00:13:06.853Z,1022.90
2018-04-18T00:14:06.881Z,1022.89
2018-04-18T00:16:00.425Z,1022.90
2018-04-18T00:17:00.444Z,1022.91
2018-04-18T00:18:53.995Z,1022.88
2018-04-18T00:19:54.928Z,1022.92
2018-04-18T00:21:47.052Z,1022.93
2018-04-18T00:22:47.076Z,1022.91
2018-04-18T00:24:40.625Z,1022.93
2018-04-18T00:25:40.646Z,1022.96
2018-04-18T00:27:34.199Z,1022.94
2018-04-18T00:28:34.222Z,1022.91
2018-04-18T00:30:28.700Z,1022.90
2018-04-18T00:31:27.785Z,1022.90
2018-04-18T00:33:21.335Z,1022.89
2018-04-18T00:34:21.357Z,1022.89
2018-04-18T00:36:14.907Z,1022.96
2018-04-18T00:37:14.946Z,1022.90
2018-04-18T00:39:08.476Z,1022.93
2018-04-18T00:40:08.499Z,1022.93
2018-04-18T00:42:02.048Z,1022.91
2018-04-18T00:43:02.070Z,1022.93
2018-04-18T00:44:55.618Z,1022.93
2018-04-18T00:45:55.640Z,1022.89
2018-04-18T00:47:49.642Z,1022.88
2018-04-18T00:48:49.210Z,1022.88
2018-04-18T00:50:43.689Z,1022.88
2018-04-18T00:51:42.781Z,1022.87
2018-04-18T00:53:36.330Z,1022.91
2018-04-18T00:54:36.352Z,1022.92
2018-04-18T00:56:30.357Z,1022.90
2018-04-18T00:57:29.925Z,1022.90
2018-04-18T00:58:29.959Z,1022.91
2018-04-18T00:59:29.998Z,1022.92
2018-04-18T01:00:30.028Z,1022.93
2018-04-18T01:01:30.064Z,1022.91
2018-04-18T01:02:30.099Z,1022.96
2018-04-18T01:03:30.133Z,1022.94
2018-04-18T01:04:30.174Z,1022.92
2018-04-18T01:05:30.202Z,1022.95
2018-04-18T01:06:30.237Z,1022.96
2018-04-18T01:07:30.275Z,1022.98
2018-04-18T01:09:23.748Z,1022.99
2018-04-18T01:10:23.771Z,1023.03
2018-04-18T01:12:17.318Z,1023.02
2018-04-18T01:13:17.339Z,1023.04
2018-04-18T01:15:10.888Z,1023.03
2018-04-18T01:16:10.917Z,1023.05
2018-04-18T01:18:04.460Z,1023.04
2018-04-18T01:19:04.480Z,1023.02
2018-04-18T01:20:58.029Z,1023.03
2018-04-18T01:21:58.057Z,1023.03
2018-04-18T01:22:58.085Z,1023.04
2018-04-18T01:23:58.121Z,1023.03
2018-04-18T01:24:58.157Z,1023.05
2018-04-18T01:25:58.192Z,1023.04
2018-04-18T01:26:58.226Z,1023.04
2018-04-18T01:27:58.262Z,1023.04
2018-04-18T01:28:58.298Z,1023.03
2018-04-18T01:29:58.963Z,1023.03
2018-04-18T01:30:58.365Z,1023.05
2018-04-18T01:32:51.869Z,1023.07
2018-04-18T01:33:51.891Z,1023.05
2018-04-18T01:35:45.439Z,1023.11
2018-04-18T01:36:45.461Z,1023.11
2018-04-18T01:38:39.017Z,1023.13
2018-04-18T01:39:39.031Z,1023.15
2018-04-18T01:41:32.580Z,1023.13
2018-04-18T01:42:32.602Z,1023.14
2018-04-18T01:44:26.150Z,1023.12
2018-04-18T01:45:26.173Z,1023.15
2018-04-18T01:46:26.208Z,1023.18
2018-04-18T01:47:26.243Z,1023.15
2018-04-18T01:48:26.310Z,1023.13
2018-04-18T01:49:26.314Z,1023.15
2018-04-18T01:50:26.350Z,1023.14
2018-04-18T01:52:19.859Z,1023.11
2018-04-18T01:53:19.884Z,1023.18
2018-04-18T01:55:13.429Z,1023.17
2018-04-18T01:56:13.456Z,1023.19
2018-04-18T01:58:07.000Z,1023.17
2018-04-18T01:59:07.022Z,1023.21
2018-04-18T02:01:00.579Z,1023.24
2018-04-18T02:02:00.596Z,1023.25
2018-04-18T02:03:00.631Z,1023.23
2018-04-18T02:04:54.168Z,1023.30
2018-04-18T02:05:54.170Z,1023.28
2018-04-18T02:07:47.207Z,1023.35
2018-04-18T02:08:47.230Z,1023.38
2018-04-18T02:09:47.264Z,1023.40
2018-04-18T02:10:47.302Z,1023.41
2018-04-18T02:11:47.333Z,1023.40
2018-04-18T02:12:47.370Z,1023.45
2018-04-18T02:14:40.908Z,1023.49
2018-04-18T02:15:40.929Z,1023.49
2018-04-18T02:17:34.480Z,1023.53
2018-04-18T02:18:34.503Z,1023.59
2018-04-18T02:19:34.537Z,1023.56
2018-04-18T02:20:34.573Z,1023.59
2018-04-18T02:21:34.630Z,1023.57
2018-04-18T02:22:34.642Z,1023.59
2018-04-18T02:23:34.676Z,1023.61
2018-04-18T02:24:34.739Z,1023.62
2018-04-18T02:26:28.197Z,1023.64
2018-04-18T02:27:28.220Z,1023.64
2018-04-18T02:29:21.767Z,1023.65
2018-04-18T02:30:21.788Z,1023.65
2018-04-18T02:32:17.792Z,1023.66
2018-04-18T02:33:15.361Z,1023.68
2018-04-18T02:35:08.907Z,1023.66
2018-04-18T02:36:08.930Z,1023.64
2018-04-18T02:38:02.475Z,1023.67
2018-04-18T02:39:02.494Z,1023.65
2018-04-18T02:40:56.046Z,1023.66
2018-04-18T02:41:56.071Z,1023.67
2018-04-18T02:43:49.625Z,1023.67
2018-04-18T02:44:49.639Z,1023.71
2018-04-18T02:45:49.672Z,1023.69
2018-04-18T02:46:49.710Z,1023.72
2018-04-18T02:47:49.743Z,1023.74
2018-04-18T02:48:49.780Z,1023.72
2018-04-18T02:49:49.812Z,1023.73
2018-04-18T02:50:49.848Z,1023.76
2018-04-18T02:51:49.884Z,1023.75
2018-04-18T02:52:49.926Z,1023.78
2018-04-18T02:54:43.449Z,1023.81
2018-04-18T02:55:43.474Z,1023.83
2018-04-18T02:57:37.018Z,1023.86
2018-04-18T02:58:37.052Z,1023.87
2018-04-18T03:00:30.592Z,1023.88
2018-04-18T03:01:30.619Z,1023.88
2018-04-18T03:03:24.161Z,1023.90
2018-04-18T03:04:24.181Z,1023.91
2018-04-18T03:06:17.738Z,1023.95
2018-04-18T03:07:17.752Z,1023.95
2018-04-18T03:08:17.791Z,1023.93
2018-04-18T03:09:18.667Z,1023.94
2018-04-18T03:10:17.875Z,1023.92
2018-04-18T03:12:11.427Z,1023.93
2018-04-18T03:13:11.445Z,1023.95
2018-04-18T03:15:05.455Z,1023.97
2018-04-18T03:16:05.017Z,1023.93
2018-04-18T03:17:58.056Z,1023.96
2018-04-18T03:18:58.080Z,1023.97
2018-04-18T03:20:52.558Z,1023.97
2018-04-18T03:21:51.648Z,1024.00
2018-04-18T03:23:45.195Z,1024.02
2018-04-18T03:24:45.216Z,1024.01
2018-04-18T03:26:38.777Z,1024.08
2018-04-18T03:27:38.788Z,1024.07
2018-04-18T03:28:38.822Z,1024.06
2018-04-18T03:29:38.858Z,1024.03
2018-04-18T03:30:38.893Z,1024.05
2018-04-18T03:31:38.929Z,1024.05
2018-04-18T03:32:38.965Z,1024.07
2018-04-18T03:33:39.023Z,1024.07
2018-04-18T03:34:39.037Z,1024.09
2018-04-18T03:35:39.069Z,1024.06
2018-04-18T03:36:39.102Z,1024.08
2018-04-18T03:37:39.139Z,1024.06
2018-04-18T03:38:39.172Z,1024.08
2018-04-18T03:39:39.211Z,1024.10
2018-04-18T03:40:39.241Z,1024.11
2018-04-18T03:41:39.277Z,1024.13
2018-04-18T03:42:39.313Z,1024.13
2018-04-18T03:43:39.345Z,1024.10
2018-04-18T03:44:39.382Z,1024.14
2018-04-18T03:45:40.205Z,1024.12
2018-04-18T03:46:39.490Z,1024.12
2018-04-18T03:48:32.987Z,1024.14
2018-04-18T03:49:33.008Z,1024.14
2018-04-18T03:51:26.556Z,1024.12
2018-04-18T03:52:26.582Z,1024.16
2018-04-18T03:53:26.625Z,1024.14
2018-04-18T03:54:26.650Z,1024.18
2018-04-18T03:55:26.684Z,1024.21
2018-04-18T03:56:26.711Z,1024.20
2018-04-18T03:58:20.256Z,1024.20
2018-04-18T03:59:20.280Z,1024.24
2018-04-18T04:01:13.827Z,1024.22
2018-04-18T04:02:13.852Z,1024.26
2018-04-18T04:04:07.401Z,1024.25
2018-04-18T04:05:07.423Z,1024.28
2018-04-18T04:07:00.970Z,1024.22
2018-04-18T04:08:00.993Z,1024.23
2018-04-18T04:09:01.029Z,1024.22
2018-04-18T04:10:01.063Z,1024.27
2018-04-18T04:11:01.098Z,1024.29
2018-04-18T04:12:01.133Z,1024.31
2018-04-18T04:13:01.167Z,1024.30
2018-04-18T04:14:54.681Z,1024.33
2018-04-18T04:15:54.702Z,1024.28
2018-04-18T04:17:48.250Z,1024.31
2018-04-18T04:18:48.277Z,1024.31
2018-04-18T04:20:41.823Z,1024.29
2018-04-18T04:21:41.848Z,1024.30
2018-04-18T04:23:35.431Z,1024.29
2018-04-18T04:24:35.413Z,1024.30
2018-04-18T04:26:28.959Z,1024.32
2018-04-18T04:27:28.982Z,1024.34
2018-04-18T04:28:29.018Z,1024.34
2018-04-18T04:29:29.056Z,1024.36
2018-04-18T04:30:29.089Z,1024.35
2018-04-18T04:31:29.123Z,1024.40
2018-04-18T04:32:29.158Z,1024.37
2018-04-18T04:33:29.211Z,1024.43
2018-04-18T04:34:29.224Z,1024.43
2018-04-18T04:35:29.258Z,1024.40
2018-04-18T04:37:22.795Z,1024.45
2018-04-18T04:38:22.818Z,1024.45
2018-04-18T04:40:16.365Z,1024.43
2018-04-18T04:41:16.389Z,1024.44
2018-04-18T04:43:09.936Z,1024.45
2018-04-18T04:44:09.959Z,1024.49
2018-04-18T04:46:03.504Z,1024.47
2018-04-18T04:47:03.528Z,1024.48
2018-04-18T04:48:03.562Z,1024.51
2018-04-18T04:49:03.603Z,1024.50
2018-04-18T04:50:03.633Z,1024.50
2018-04-18T04:51:03.668Z,1024.52
2018-04-18T04:52:03.699Z,1024.51
2018-04-18T04:53:03.735Z,1024.51
2018-04-18T04:54:57.220Z,1024.55
2018-04-18T04:55:57.243Z,1024.57
2018-04-18T04:57:50.801Z,1024.57
2018-04-18T04:58:50.822Z,1024.62
2018-04-18T05:00:44.366Z,1024.65
2018-04-18T05:01:44.386Z,1024.66
2018-04-18T05:03:37.934Z,1024.68
2018-04-18T05:04:37.956Z,1024.70
2018-04-18T05:06:31.505Z,1024.74
2018-04-18T05:07:31.536Z,1024.74
2018-04-18T05:09:25.076Z,1024.79
2018-04-18T05:10:25.107Z,1024.81
2018-04-18T05:12:18.653Z,1024.83
2018-04-18T05:13:18.665Z,1024.88
2018-04-18T05:15:12.219Z,1024.90
2018-04-18T05:16:12.237Z,1024.92
2018-04-18T05:18:05.789Z,1024.93
2018-04-18T05:19:05.809Z,1024.91
2018-04-18T05:20:58.844Z,1024.91
2018-04-18T05:21:58.867Z,1024.94
2018-04-18T05:23:52.416Z,1024.93
2018-04-18T05:24:52.437Z,1024.98
2018-04-18T05:26:45.479Z,1024.97
2018-04-18T05:27:45.498Z,1024.99
2018-04-18T05:29:39.041Z,1024.97
2018-04-18T05:30:39.066Z,1025.00
2018-04-18T05:32:32.612Z,1025.00
2018-04-18T05:33:32.635Z,1025.02
2018-04-18T05:35:27.145Z,1025.05
2018-04-18T05:36:26.209Z,1025.07
2018-04-18T05:38:19.756Z,1025.10
2018-04-18T05:39:20.697Z,1025.11
2018-04-18T05:41:13.328Z,1025.11
2018-04-18T05:42:13.351Z,1025.21
2018-04-18T05:44:06.898Z,1025.21
2018-04-18T05:45:06.958Z,1025.24
2018-04-18T05:47:00.471Z,1025.26
2018-04-18T05:48:00.487Z,1025.28
2018-04-18T05:49:54.036Z,1025.30
2018-04-18T05:50:54.058Z,1025.30
2018-04-18T05:52:48.061Z,1025.28
2018-04-18T05:53:47.630Z,1025.32
2018-04-18T05:55:41.181Z,1025.26
2018-04-18T05:56:41.204Z,1025.35
2018-04-18T05:58:34.755Z,1025.30
2018-04-18T05:59:34.772Z,1025.32
2018-04-18T06:01:28.774Z,1025.31
2018-04-18T06:02:28.343Z,1025.32
2018-04-18T06:04:22.340Z,1025.35
2018-04-18T06:05:21.905Z,1025.29
2018-04-18T06:07:15.461Z,1025.30
2018-04-18T06:08:15.483Z,1025.30
2018-04-18T06:10:08.679Z,1025.32
2018-04-18T06:11:08.708Z,1025.30
2018-04-18T06:13:01.795Z,1025.34
2018-04-18T06:14:01.806Z,1025.32
2018-04-18T06:15:01.839Z,1025.31
2018-04-18T06:16:01.879Z,1025.36
2018-04-18T06:17:01.908Z,1025.39
2018-04-18T06:18:01.945Z,1025.41
2018-04-18T06:19:01.980Z,1025.39
2018-04-18T06:20:02.015Z,1025.39
2018-04-18T06:21:02.048Z,1025.44
2018-04-18T06:22:02.083Z,1025.42
2018-04-18T06:23:02.119Z,1025.42
2018-04-18T06:24:02.152Z,1025.47
2018-04-18T06:25:02.187Z,1025.51
2018-04-18T06:26:02.222Z,1025.48
2018-04-18T06:27:02.257Z,1025.52
2018-04-18T06:28:02.296Z,1025.53
2018-04-18T06:29:02.333Z,1025.59
2018-04-18T06:30:02.363Z,1025.57
2018-04-18T06:31:02.402Z,1025.57
2018-04-18T06:32:02.431Z,1025.59
2018-04-18T06:33:02.468Z,1025.61
2018-04-18T06:34:02.501Z,1025.61
2018-04-18T06:35:02.658Z,1025.61
2018-04-18T06:36:02.570Z,1025.64
2018-04-18T06:37:02.609Z,1025.62
2018-04-18T06:38:02.649Z,1025.65
2018-04-18T06:39:02.834Z,1025.65
2018-04-18T06:40:02.715Z,1025.66
2018-04-18T06:41:02.745Z,1025.66
2018-04-18T06:42:02.780Z,1025.68
2018-04-18T06:43:02.820Z,1025.70
2018-04-18T06:44:02.858Z,1025.70
2018-04-18T06:45:02.890Z,1025.72
2018-04-18T06:46:56.402Z,1025.68
2018-04-18T06:47:56.602Z,1025.72
2018-04-18T06:49:49.967Z,1025.73
2018-04-18T06:50:49.988Z,1025.74
2018-04-18T06:51:50.026Z,1025.76
2018-04-18T06:52:50.907Z,1025.73
2018-04-18T06:53:50.098Z,1025.79
2018-04-18T06:55:43.660Z,1025.79
2018-04-18T06:56:43.952Z,1025.78
2018-04-18T06:58:38.663Z,1025.75
2018-04-18T06:59:37.256Z,1025.74
2018-04-18T07:01:30.290Z,1025.75
2018-04-18T07:02:30.315Z,1025.75
2018-04-18T07:04:23.357Z,1025.77
2018-04-18T07:05:23.378Z,1025.80
2018-04-18T07:06:23.405Z,1025.80
2018-04-18T07:07:23.444Z,1025.78
2018-04-18T07:08:23.475Z,1025.77
2018-04-18T07:09:23.510Z,1025.79
2018-04-18T07:10:23.545Z,1025.78
2018-04-18T07:11:23.579Z,1025.77
2018-04-18T07:12:23.612Z,1025.77
2018-04-18T07:13:23.649Z,1025.78
2018-04-18T07:14:23.683Z,1025.78
2018-04-18T07:15:23.719Z,1025.73
2018-04-18T07:16:23.751Z,1025.76
2018-04-18T07:17:23.809Z,1025.78
2018-04-18T07:18:23.822Z,1025.73
2018-04-18T07:19:23.863Z,1025.74
2018-04-18T07:20:23.891Z,1025.79
2018-04-18T07:21:23.929Z,1025.76
2018-04-18T07:22:23.961Z,1025.76
2018-04-18T07:23:23.995Z,1025.77
2018-04-18T07:24:24.031Z,1025.77
2018-04-18T07:25:24.066Z,1025.76
2018-04-18T07:26:24.099Z,1025.75
2018-04-18T07:27:24.133Z,1025.79
2018-04-18T07:28:24.167Z,1025.77
2018-04-18T07:29:24.206Z,1025.78
2018-04-18T07:30:24.231Z,1025.79
2018-04-18T07:31:24.271Z,1025.78
2018-04-18T07:32:24.308Z,1025.79
2018-04-18T07:33:24.340Z,1025.79
2018-04-18T07:34:24.395Z,1025.81
2018-04-18T07:35:24.413Z,1025.81
2018-04-18T07:36:24.444Z,1025.82
2018-04-18T07:37:24.479Z,1025.82
2018-04-18T07:38:24.517Z,1025.82
2018-04-18T07:39:24.550Z,1025.83
2018-04-18T07:40:24.585Z,1025.83
2018-04-18T07:41:24.622Z,1025.84
2018-04-18T07:42:24.656Z,1025.80
2018-04-18T07:43:24.691Z,1025.81
2018-04-18T07:44:24.720Z,1025.78
2018-04-18T07:45:24.759Z,1025.84
2018-04-18T07:46:24.791Z,1025.82
2018-04-18T07:47:24.827Z,1025.83
2018-04-18T07:48:24.859Z,1025.81
2018-04-18T07:49:24.894Z,1025.80
2018-04-18T07:50:24.930Z,1025.84
2018-04-18T07:51:24.967Z,1025.82
2018-04-18T07:52:25.000Z,1025.83
2018-04-18T07:53:25.035Z,1025.84
2018-04-18T07:54:25.067Z,1025.85
2018-04-18T07:55:25.103Z,1025.89
2018-04-18T07:56:25.136Z,1025.85
2018-04-18T07:57:25.175Z,1025.90
2018-04-18T07:58:25.809Z,1025.94
2018-04-18T07:59:25.242Z,1025.94
2018-04-18T08:01:18.746Z,1025.95
2018-04-18T08:02:18.770Z,1025.96
2018-04-18T08:04:12.315Z,1025.92
2018-04-18T08:05:12.337Z,1025.94
2018-04-18T08:07:05.885Z,1025.94
2018-04-18T08:08:06.819Z,1025.91
2018-04-18T08:09:59.456Z,1025.93
2018-04-18T08:10:59.505Z,1025.96
2018-04-18T08:12:53.486Z,1025.96
2018-04-18T08:13:53.050Z,1025.94
2018-04-18T08:15:46.596Z,1025.92
2018-04-18T08:16:46.618Z,1025.95
2018-04-18T08:17:46.655Z,1025.95
2018-04-18T08:18:46.688Z,1025.93
2018-04-18T08:19:46.722Z,1025.94
2018-04-18T08:20:46.753Z,1025.95
2018-04-18T08:21:46.824Z,1025.96
2018-04-18T08:22:46.828Z,1025.95
2018-04-18T08:23:46.863Z,1025.95
2018-04-18T08:24:46.897Z,1025.95
2018-04-18T08:25:46.934Z,1025.97
2018-04-18T08:26:46.966Z,1025.97
2018-04-18T08:27:47.001Z,1025.96
2018-04-18T08:28:47.038Z,1025.94
2018-04-18T08:29:47.071Z,1025.95
2018-04-18T08:30:47.105Z,1026.00
2018-04-18T08:31:47.341Z,1025.98
2018-04-18T08:32:47.174Z,1025.98
2018-04-18T08:33:47.209Z,1025.98
2018-04-18T08:34:47.243Z,1025.98
2018-04-18T08:35:47.298Z,1025.94
2018-04-18T08:36:47.348Z,1025.98
2018-04-18T08:40:13.121Z,1026.01
2018-04-18T08:41:13.327Z,1026.00
2018-04-18T08:43:06.618Z,1026.01
2018-04-18T08:44:07.139Z,1025.98
2018-04-18T08:46:00.580Z,1026.01
2018-04-18T08:47:00.165Z,1025.99
2018-04-18T08:48:53.952Z,1026.02
2018-04-18T08:49:53.904Z,1025.98
2018-04-18T08:51:47.367Z,1025.98
2018-04-18T08:52:47.391Z,1025.98
2018-04-18T08:54:45.092Z,1026.00
2018-04-18T08:55:45.497Z,1025.99
2018-04-18T08:56:45.107Z,1025.97
2018-04-18T08:57:45.139Z,1025.94
2018-04-18T08:58:45.174Z,1025.99
2018-04-18T08:59:45.221Z,1025.95
2018-04-18T09:00:45.244Z,1025.93
2018-04-18T09:01:45.279Z,1025.94
2018-04-18T09:02:45.331Z,1025.99
2018-04-18T09:03:46.026Z,1025.94
2018-04-18T09:05:38.871Z,1025.97
2018-04-18T09:06:38.903Z,1025.94
2018-04-18T09:08:32.441Z,1025.96
2018-04-18T09:09:32.461Z,1025.94
2018-04-18T09:11:25.499Z,1025.94
2018-04-18T09:12:25.518Z,1025.96
2018-04-18T09:14:19.071Z,1025.93
2018-04-18T09:15:19.090Z,1025.91
2018-04-18T09:16:19.126Z,1025.87
2018-04-18T09:17:19.162Z,1025.90
2018-04-18T09:18:19.195Z,1025.89
2018-04-18T09:19:19.373Z,1025.86
2018-04-18T09:20:19.264Z,1025.86
2018-04-18T09:22:12.801Z,1025.91
2018-04-18T09:23:12.800Z,1025.88
2018-04-18T09:25:06.346Z,1025.85
2018-04-18T09:26:06.368Z,1025.87
2018-04-18T09:27:06.402Z,1025.87
2018-04-18T09:28:06.440Z,1025.83
2018-04-18T09:29:06.472Z,1025.84
2018-04-18T09:30:06.507Z,1025.83
2018-04-18T09:31:06.542Z,1025.83
2018-04-18T09:32:06.577Z,1025.78
2018-04-18T09:33:06.634Z,1025.82
2018-04-18T09:34:06.649Z,1025.83
2018-04-18T09:35:06.682Z,1025.84
2018-04-18T09:36:06.715Z,1025.81
2018-04-18T09:37:06.749Z,1025.81
2018-04-18T09:38:06.790Z,1025.84
2018-04-18T09:39:06.819Z,1025.83
2018-04-18T09:40:06.864Z,1025.80
2018-04-18T09:41:06.903Z,1025.77
2018-04-18T09:42:06.927Z,1025.77
2018-04-18T09:43:06.959Z,1025.79
2018-04-18T09:44:06.995Z,1025.79
2018-04-18T09:45:07.032Z,1025.75
2018-04-18T09:46:07.063Z,1025.80
2018-04-18T09:47:07.100Z,1025.77
2018-04-18T09:48:07.135Z,1025.72
2018-04-18T09:49:07.167Z,1025.71
2018-04-18T09:50:07.358Z,1025.71
2018-04-18T09:51:07.785Z,1025.71
2018-04-18T09:52:07.274Z,1025.72
2018-04-18T09:54:00.823Z,1025.74
2018-04-18T09:55:00.847Z,1025.72
2018-04-18T09:56:54.848Z,1025.68
2018-04-18T09:57:54.415Z,1025.68
2018-04-18T09:59:47.963Z,1025.64
2018-04-18T10:00:47.990Z,1025.64
2018-04-18T10:02:41.533Z,1025.67
2018-04-18T10:03:41.556Z,1025.66
2018-04-18T10:05:35.107Z,1025.65
2018-04-18T10:06:35.131Z,1025.59
2018-04-18T10:08:28.675Z,1025.57
2018-04-18T10:09:28.697Z,1025.61
2018-04-18T10:11:22.247Z,1025.56
2018-04-18T10:12:22.268Z,1025.59
2018-04-18T10:14:15.816Z,1025.55
2018-04-18T10:15:15.839Z,1025.57
2018-04-18T10:17:10.318Z,1025.50
2018-04-18T10:18:09.409Z,1025.49
2018-04-18T10:20:02.955Z,1025.48
2018-04-18T10:21:02.981Z,1025.45
2018-04-18T10:22:56.997Z,1025.46
2018-04-18T10:23:56.553Z,1025.43
2018-04-18T10:25:50.554Z,1025.45
2018-04-18T10:26:50.120Z,1025.45
2018-04-18T10:27:50.155Z,1025.42
2018-04-18T10:28:50.191Z,1025.41
2018-04-18T10:30:43.683Z,1025.42
2018-04-18T10:31:43.702Z,1025.45
2018-04-18T10:33:37.253Z,1025.40
2018-04-18T10:34:37.279Z,1025.44
2018-04-18T10:36:30.824Z,1025.45
2018-04-18T10:37:30.846Z,1025.46
2018-04-18T10:39:24.392Z,1025.42
2018-04-18T10:40:24.416Z,1025.43
2018-04-18T10:42:17.970Z,1025.37
2018-04-18T10:43:17.989Z,1025.39
2018-04-18T10:45:11.532Z,1025.38
2018-04-18T10:46:11.557Z,1025.38
2018-04-18T10:48:05.103Z,1025.34
2018-04-18T10:49:05.125Z,1025.33
2018-04-18T10:50:58.673Z,1025.33
2018-04-18T10:51:58.698Z,1025.32
2018-04-18T10:53:52.248Z,1025.26
2018-04-18T10:54:52.268Z,1025.30
2018-04-18T10:56:45.819Z,1025.27
2018-04-18T10:57:45.839Z,1025.28
2018-04-18T10:59:39.840Z,1025.29
2018-04-18T11:00:39.407Z,1025.27
2018-04-18T11:01:39.446Z,1025.27
2018-04-18T11:02:39.481Z,1025.31
2018-04-18T11:04:32.973Z,1025.29
2018-04-18T11:05:32.997Z,1025.25
2018-04-18T11:07:26.542Z,1025.25
2018-04-18T11:08:26.566Z,1025.20
2018-04-18T11:10:20.113Z,1025.20
2018-04-18T11:11:20.138Z,1025.20
2018-04-18T11:13:13.726Z,1025.21
2018-04-18T11:14:13.706Z,1025.14
2018-04-18T11:16:07.706Z,1025.13
2018-04-18T11:17:07.284Z,1025.14
2018-04-18T11:19:00.825Z,1025.11
2018-04-18T11:20:00.845Z,1025.15
2018-04-18T11:21:54.395Z,1025.17
2018-04-18T11:22:54.421Z,1025.15
2018-04-18T11:24:48.419Z,1025.12
2018-04-18T11:25:47.987Z,1025.12
2018-04-18T11:27:41.537Z,1025.04
2018-04-18T11:28:41.560Z,1025.04
2018-04-18T11:30:35.106Z,1025.06
2018-04-18T11:31:35.129Z,1025.02
2018-04-18T11:33:28.678Z,1025.07
2018-04-18T11:34:28.704Z,1025.00
2018-04-18T11:35:28.745Z,1025.01
2018-04-18T11:36:28.772Z,1025.02
2018-04-18T11:37:28.816Z,1024.98
2018-04-18T11:38:28.842Z,1024.98
2018-04-18T11:39:28.876Z,1025.01
2018-04-18T11:40:28.912Z,1024.97
2018-04-18T11:41:28.947Z,1024.98
2018-04-18T11:42:28.980Z,1024.96
2018-04-18T11:43:29.016Z,1024.95
2018-04-18T11:44:29.052Z,1024.94
2018-04-18T11:45:29.144Z,1024.95
2018-04-18T11:46:29.119Z,1024.94
2018-04-18T11:47:29.156Z,1024.93
2018-04-18T11:48:29.191Z,1024.88
2018-04-18T11:49:29.224Z,1024.89
2018-04-18T11:50:29.268Z,1024.89
2018-04-18T11:51:29.296Z,1024.90
2018-04-18T11:52:29.332Z,1024.91
2018-04-18T11:53:29.367Z,1024.89
2018-04-18T11:54:29.401Z,1024.86
2018-04-18T11:56:22.496Z,1024.91
2018-04-18T11:57:22.518Z,1024.85
2018-04-18T11:59:16.065Z,1024.85
2018-04-18T12:00:16.088Z,1024.82
2018-04-18T12:02:09.646Z,1024.84
2018-04-18T12:03:09.661Z,1024.87
2018-04-18T12:05:03.205Z,1024.84
2018-04-18T12:06:03.229Z,1024.81
2018-04-18T12:07:56.777Z,1024.82
2018-04-18T12:08:56.803Z,1024.84
2018-04-18T12:10:50.348Z,1024.85
2018-04-18T12:11:50.370Z,1024.85
2018-04-18T12:13:43.917Z,1024.81
2018-04-18T12:14:43.940Z,1024.79
2018-04-18T12:16:37.489Z,1024.81
2018-04-18T12:17:37.511Z,1024.79
2018-04-18T12:19:31.059Z,1024.77
2018-04-18T12:20:31.084Z,1024.80
2018-04-18T12:22:24.628Z,1024.80
2018-04-18T12:23:24.652Z,1024.81
2018-04-18T12:25:18.654Z,1024.79
2018-04-18T12:26:18.216Z,1024.77
2018-04-18T12:28:11.763Z,1024.76
2018-04-18T12:29:11.791Z,1024.73
2018-04-18T12:30:11.828Z,1024.75
2018-04-18T12:31:11.862Z,1024.79
2018-04-18T12:32:11.896Z,1024.77
2018-04-18T12:33:11.933Z,1024.79
2018-04-18T12:34:11.967Z,1024.77
2018-04-18T12:35:12.001Z,1024.75
2018-04-18T12:36:12.038Z,1024.76
2018-04-18T12:37:12.072Z,1024.75
2018-04-18T12:38:12.106Z,1024.75
2018-04-18T12:39:12.145Z,1024.75
2018-04-18T12:40:12.177Z,1024.77
2018-04-18T12:41:12.210Z,1024.73
2018-04-18T12:42:12.248Z,1024.68
2018-04-18T12:43:12.282Z,1024.66
2018-04-18T12:44:12.346Z,1024.66
2018-04-18T12:45:12.351Z,1024.65
2018-04-18T12:46:12.387Z,1024.64
2018-04-18T12:47:12.421Z,1024.60
2018-04-18T12:48:12.455Z,1024.62
2018-04-18T12:49:12.498Z,1024.60
2018-04-18T12:50:13.209Z,1024.61
2018-04-18T12:51:12.568Z,1024.64
2018-04-18T12:53:06.112Z,1024.57
2018-04-18T12:54:06.138Z,1024.60
2018-04-18T12:55:59.684Z,1024.58
2018-04-18T12:56:59.703Z,1024.56
2018-04-18T12:58:52.796Z,1024.57
2018-04-18T12:59:52.771Z,1024.52
2018-04-18T13:01:46.312Z,1024.47
2018-04-18T13:02:46.332Z,1024.47
2018-04-18T13:04:39.368Z,1024.42
2018-04-18T13:05:39.396Z,1024.41
2018-04-18T13:07:32.950Z,1024.41
2018-04-18T13:08:32.962Z,1024.41
2018-04-18T13:09:32.998Z,1024.38
2018-04-18T13:10:33.081Z,1024.38
2018-04-18T13:11:33.071Z,1024.36
2018-04-18T13:12:33.105Z,1024.34
2018-04-18T13:13:33.183Z,1024.31
2018-04-18T13:14:33.174Z,1024.32
2018-04-18T13:15:33.217Z,1024.33
2018-04-18T13:16:33.250Z,1024.30
2018-04-18T13:17:33.293Z,1024.27
2018-04-18T13:18:33.325Z,1024.31
2018-04-18T13:19:33.479Z,1024.23
2018-04-18T13:20:33.381Z,1024.23
2018-04-18T13:21:33.416Z,1024.21
2018-04-18T13:22:33.448Z,1024.19
2018-04-18T13:23:33.490Z,1024.15
2018-04-18T13:24:33.523Z,1024.13
2018-04-18T13:25:33.562Z,1024.12
2018-04-18T13:26:33.594Z,1024.09
2018-04-18T13:27:33.630Z,1024.13
2018-04-18T13:28:33.662Z,1024.08
2018-04-18T13:29:33.731Z,1024.11
2018-04-18T13:30:33.856Z,1024.09
2018-04-18T13:31:33.762Z,1024.10
2018-04-18T13:32:33.802Z,1024.11
2018-04-18T13:33:33.840Z,1024.12
2018-04-18T13:34:33.944Z,1024.14
2018-04-18T13:35:33.908Z,1024.17
2018-04-18T13:36:33.942Z,1024.10
2018-04-18T13:37:33.978Z,1024.08
2018-04-18T13:38:34.014Z,1024.07
2018-04-18T13:39:34.048Z,1024.06
2018-04-18T13:40:34.082Z,1024.11
2018-04-18T13:41:34.154Z,1024.07
2018-04-18T13:42:34.155Z,1024.05
2018-04-18T13:43:34.185Z,1024.06
2018-04-18T13:44:34.223Z,1024.03
2018-04-18T13:45:34.258Z,1024.05
2018-04-18T13:46:34.295Z,1024.02
2018-04-18T13:47:34.330Z,1023.99
2018-04-18T13:48:34.364Z,1023.98
2018-04-18T13:49:34.400Z,1023.97
2018-04-18T13:50:34.435Z,1023.93
2018-04-18T13:51:34.469Z,1023.94
2018-04-18T13:52:34.550Z,1023.94
2018-04-18T13:53:34.543Z,1023.93
2018-04-18T13:54:34.575Z,1023.91
2018-04-18T13:55:34.613Z,1023.87
2018-04-18T13:56:34.644Z,1023.88
2018-04-18T13:57:34.698Z,1023.89
2018-04-18T13:58:34.719Z,1023.88
2018-04-18T13:59:34.749Z,1023.88
2018-04-18T14:00:34.784Z,1023.85
2018-04-18T14:01:34.819Z,1023.86
2018-04-18T14:02:34.856Z,1023.86
2018-04-18T14:03:34.942Z,1023.79
2018-04-18T14:04:34.957Z,1023.83
2018-04-18T14:05:35.005Z,1023.80
2018-04-18T14:06:35.000Z,1023.85
2018-04-18T14:07:35.029Z,1023.87
2018-04-18T14:11:00.659Z,1023.85
2018-04-18T14:12:00.681Z,1023.78
2018-04-18T14:13:54.687Z,1023.77
2018-04-18T14:14:54.184Z,1023.74
2018-04-18T14:16:48.179Z,1023.71
2018-04-18T14:17:48.682Z,1023.73
2018-04-18T14:19:41.144Z,1023.72
2018-04-18T14:20:41.165Z,1023.65
2018-04-18T14:22:34.650Z,1023.66
2018-04-18T14:23:34.666Z,1023.63
2018-04-18T14:25:28.142Z,1023.67
2018-04-18T14:26:28.174Z,1023.63
2018-04-18T14:28:21.650Z,1023.63
2018-04-18T14:29:21.666Z,1023.62
2018-04-18T14:31:15.148Z,1023.58
2018-04-18T14:32:15.165Z,1023.58
2018-04-18T14:34:08.643Z,1023.59
2018-04-18T14:35:08.668Z,1023.57
2018-04-18T14:37:02.146Z,1023.53
2018-04-18T14:38:02.165Z,1023.51
2018-04-18T14:39:55.644Z,1023.52
2018-04-18T14:40:55.666Z,1023.51
2018-04-18T14:41:55.701Z,1023.48
2018-04-18T14:42:55.738Z,1023.50
2018-04-18T14:43:55.773Z,1023.47
2018-04-18T14:44:55.803Z,1023.45
2018-04-18T14:45:55.838Z,1023.43
2018-04-18T14:46:55.875Z,1023.46
2018-04-18T14:47:55.929Z,1023.49
2018-04-18T14:48:55.948Z,1023.44
2018-04-18T14:49:55.983Z,1023.44
2018-04-18T14:50:56.017Z,1023.46
2018-04-18T14:51:56.052Z,1023.44
2018-04-18T14:52:56.084Z,1023.44